Close Search

Base
°C
Summit
°C

WEATHER AT A GLANCE

Image Slideshow

RMR Village

Revelstoke Mountain Resort -  RMR Village Webcam

Top of The Stoke

Revelstoke Mountain Resort -  Top of The Stoke Webcam

Top of Stellar

Revelstoke Mountain Resort -  Top of Stellar Webcam

Mackenzie Outpost

Revelstoke Mountain Resort -  Mackenzie Outpost Webcam

Ripper

Revelstoke Mountain Resort -  Ripper Webcam
Base
°C
Summit
°C
Wind (Summit)
km/h

Today's Forecast

Subpeak Weather

Time Avg. Air Temp Dew Point Avg. Rel Humidity Avg. 2 Min Wind Speed Max Gust Velocity MGV Time MGV Direction Avg. Spot Wind Velocity
2026-09-01 02:15:007° C5° C86%15 km/h23 km/h02:15:00S16 km/h
01:15:007° C5° C85%22 km/h26 km/h01:12:00S21 km/h
00:15:007° C5° C86%21 km/h27 km/h00:11:00SE23 km/h
23:15:007° C5° C89%22 km/h37 km/h23:11:00SE25 km/h
22:15:007° C5° C89%18 km/h31 km/h22:13:00SE19 km/h
21:15:007° C5° C89%21 km/h25 km/h21:12:00SE22 km/h
20:15:006° C5° C89%14 km/h21 km/h20:14:00SE13 km/h
19:15:006° C5° C91%15 km/h21 km/h19:14:00SE15 km/h
18:15:007° C5° C89%15 km/h19 km/h18:13:00S13 km/h
17:15:008° C5° C89%7 km/h16 km/h17:12:00SE6 km/h
16:15:007° C7° C96%9 km/h15 km/h16:13:00S9 km/h
15:15:007° C6° C99%5 km/h8 km/h15:14:00E4 km/h
14:15:006° C6° C100%3 km/h14 km/h14:12:00SW4 km/h
13:15:005° C5° C100%9 km/h15 km/h13:15:00S8 km/h
12:15:004° C4° C100%12 km/h14 km/h12:14:00SE9 km/h
11:15:004° C5° C100%10 km/h21 km/h11:15:00SE13 km/h
10:15:004° C4° C100%13 km/h17 km/h10:12:00SE11 km/h
09:15:003° C3° C100%10 km/h20 km/h09:12:00SE12 km/h
08:15:002° C2° C100%18 km/h22 km/h08:11:00S19 km/h
07:15:003° C2° C100%7 km/h11 km/h07:13:00SE8 km/h
06:15:003° C3° C100%5 km/h7 km/h06:15:00S4 km/h
05:15:003° C3° C100%5 km/h6 km/h05:14:00W5 km/h
04:15:003° C3° C100%11 km/h14 km/h04:11:00SW12 km/h
03:15:003° C3° C100%15 km/h16 km/h03:13:00SW14 km/h

Time Avg. Air Temp Dew Point Avg. Rel Humidity Avg. 2 Min Wind Speed Max Gust Velocity MGV Time MGV Direction Avg. Spot Wind Velocity
2026-09-01 02:15:007° C5° C86%15 km/h23 km/h02:15:00S16 km/h
02:10:007° C5° C85%17 km/h22 km/h02:07:00S18 km/h
02:05:007° C4° C82%17 km/h22 km/h02:04:00S17 km/h
02:00:007° C4° C84%17 km/h22 km/h01:56:00S18 km/h
01:55:007° C5° C83%19 km/h22 km/h01:55:00S19 km/h
01:50:007° C5° C84%22 km/h24 km/h01:49:00S21 km/h
01:45:007° C4° C84%18 km/h23 km/h01:43:00S20 km/h
01:40:007° C5° C85%17 km/h25 km/h01:38:00S20 km/h
01:35:007° C5° C85%21 km/h26 km/h01:32:00S21 km/h
01:30:007° C5° C85%20 km/h29 km/h01:27:00SE21 km/h
01:25:007° C5° C85%19 km/h26 km/h01:22:00S21 km/h
01:20:007° C5° C85%17 km/h26 km/h01:17:00SE20 km/h
01:15:007° C5° C85%22 km/h26 km/h01:12:00S21 km/h

We value your privacy
We use cookies to enhance your browsing experience, serve personalized ads or content, and analyze our traffic. By clicking "Allow Cookies", you consent to our use of cookies. For additional details view our Privacy Policy.
Cookie preferences

You can control how your data is used on our website. Learn more below about the cookies we use by reviewing our Privacy Policy.

Your cookie preferences have been saved.